createdAt,value
2022-09-21T00:03:28.694Z,6.79
2022-09-21T00:07:30.069Z,7.00
2022-09-21T00:11:33.185Z,6.91
2022-09-21T00:15:35.123Z,7.01
2022-09-21T00:19:36.782Z,7.13
2022-09-21T00:23:38.740Z,7.36
2022-09-21T00:27:40.184Z,7.63
2022-09-21T00:31:41.690Z,7.78
2022-09-21T00:35:43.162Z,7.73
2022-09-21T00:39:44.715Z,7.69
2022-09-21T00:43:49.217Z,7.60
2022-09-21T00:47:52.526Z,7.48
2022-09-21T00:51:54.956Z,7.66
2022-09-21T00:55:59.220Z,7.57
2022-09-21T01:00:04.994Z,7.46
2022-09-21T01:04:07.166Z,7.51
2022-09-21T01:08:13.088Z,7.51
2022-09-21T01:12:35.625Z,7.71
2022-09-21T01:16:56.377Z,7.60
2022-09-21T01:21:23.412Z,7.70
2022-09-21T01:25:37.537Z,7.72
2022-09-21T01:29:53.015Z,7.59
2022-09-21T01:34:01.613Z,7.57
2022-09-21T01:38:10.822Z,7.62
2022-09-21T01:42:14.150Z,7.30
2022-09-21T01:46:19.434Z,7.40
2022-09-21T01:50:21.272Z,7.18
2022-09-21T01:54:28.558Z,7.13
2022-09-21T01:58:52.477Z,6.96
2022-09-21T02:03:05.882Z,7.19
2022-09-21T02:07:08.469Z,7.03
2022-09-21T02:11:13.427Z,7.06
2022-09-21T02:15:15.128Z,7.02
2022-09-21T02:19:26.723Z,6.55
2022-09-21T02:23:40.765Z,6.41
2022-09-21T02:27:59.723Z,6.40
2022-09-21T02:32:51.372Z,6.15
2022-09-21T02:37:10.347Z,6.08
2022-09-21T02:41:25.102Z,6.19
2022-09-21T02:45:32.908Z,6.21
2022-09-21T02:49:39.054Z,6.12
2022-09-21T02:53:42.054Z,5.92
2022-09-21T02:57:45.794Z,5.77
2022-09-21T03:01:47.382Z,5.71
2022-09-21T03:05:51.068Z,5.91
2022-09-21T03:09:52.542Z,6.27
2022-09-21T03:13:54.645Z,6.30
2022-09-21T03:17:56.193Z,6.50
2022-09-21T03:21:57.740Z,6.71
2022-09-21T03:25:59.167Z,6.72
2022-09-21T03:30:02.331Z,6.81
2022-09-21T03:34:04.124Z,6.85
2022-09-21T03:38:05.876Z,6.89
2022-09-21T03:42:07.435Z,6.88
2022-09-21T03:46:08.954Z,6.85
2022-09-21T03:50:11.203Z,6.77
2022-09-21T03:54:12.707Z,6.93
2022-09-21T03:58:14.631Z,6.98
2022-09-21T04:02:16.975Z,6.85
2022-09-21T04:06:18.582Z,6.29
2022-09-21T04:10:24.203Z,6.36
2022-09-21T04:14:25.665Z,6.18
2022-09-21T04:18:27.118Z,6.04
2022-09-21T04:22:28.611Z,5.96
2022-09-21T04:26:32.654Z,5.95
2022-09-21T04:30:37.736Z,5.76
2022-09-21T04:34:39.591Z,5.84
2022-09-21T04:38:41.026Z,5.80
2022-09-21T04:42:42.547Z,5.63
2022-09-21T04:46:44.129Z,5.50
2022-09-21T04:50:49.618Z,5.41
2022-09-21T04:54:51.084Z,5.36
2022-09-21T04:58:52.451Z,5.14
2022-09-21T05:02:53.895Z,5.35
2022-09-21T05:06:55.321Z,5.43
2022-09-21T05:10:56.708Z,5.34
2022-09-21T05:14:58.164Z,5.37
2022-09-21T05:18:59.571Z,5.40
2022-09-21T05:23:02.272Z,5.68
2022-09-21T05:27:03.834Z,5.70
2022-09-21T05:31:18.464Z,6.06
2022-09-21T05:35:45.861Z,6.12
2022-09-21T05:39:47.515Z,6.39
2022-09-21T05:43:49.192Z,6.36
2022-09-21T05:48:01.029Z,6.47
2022-09-21T05:52:08.482Z,6.45
2022-09-21T05:56:48.441Z,6.46
2022-09-21T06:01:06.655Z,6.62
2022-09-21T06:05:12.759Z,6.75
2022-09-21T06:09:14.123Z,6.77
2022-09-21T06:13:15.848Z,6.90
2022-09-21T06:17:17.268Z,7.10
2022-09-21T06:21:18.715Z,7.43
2022-09-21T06:25:20.410Z,7.69
2022-09-21T06:29:23.613Z,7.82
2022-09-21T06:33:25.461Z,7.89
2022-09-21T06:37:26.860Z,8.14
2022-09-21T06:41:28.320Z,8.39
2022-09-21T06:45:31.108Z,8.19
2022-09-21T06:49:32.499Z,8.22
2022-09-21T06:53:34.399Z,8.45
2022-09-21T06:57:38.775Z,8.42
2022-09-21T07:01:40.515Z,8.56
2022-09-21T07:05:45.137Z,8.86
2022-09-21T07:14:08.156Z,9.31
2022-09-21T07:18:14.089Z,9.46
2022-09-21T07:22:15.504Z,9.82
2022-09-21T07:26:16.992Z,9.38
2022-09-21T07:30:18.463Z,9.78
2022-09-21T07:34:20.027Z,9.84
2022-09-21T07:38:21.449Z,9.84
2022-09-21T07:42:24.130Z,9.64
2022-09-21T07:46:25.634Z,9.94
2022-09-21T07:50:27.059Z,9.97
2022-09-21T07:54:28.499Z,10.00
2022-09-21T07:58:48.691Z,10.58
2022-09-21T08:02:50.193Z,10.23
2022-09-21T08:06:51.693Z,10.32
2022-09-21T08:10:54.510Z,10.85
2022-09-21T08:14:55.935Z,10.55
2022-09-21T08:18:57.705Z,10.54
2022-09-21T08:23:00.062Z,10.76
2022-09-21T08:27:01.515Z,11.17
2022-09-21T08:31:05.868Z,11.47
2022-09-21T08:35:08.687Z,11.01
2022-09-21T08:39:10.253Z,11.41
2022-09-21T08:43:16.633Z,11.59
2022-09-21T08:47:39.599Z,11.29
2022-09-21T08:51:57.673Z,11.98
2022-09-21T08:55:59.354Z,12.19
2022-09-21T09:00:02.407Z,12.13
2022-09-21T09:04:22.102Z,12.45
2022-09-21T09:08:42.770Z,11.95
2022-09-21T09:13:05.979Z,12.56
2022-09-21T09:17:25.429Z,13.30
2022-09-21T09:21:40.205Z,13.22
2022-09-21T09:25:43.404Z,13.24
2022-09-21T09:30:04.348Z,13.37
2022-09-21T09:34:29.358Z,14.03
2022-09-21T09:38:39.597Z,14.25
2022-09-21T09:43:07.812Z,14.50
2022-09-21T09:47:28.181Z,14.30
2022-09-21T09:51:29.802Z,14.81
2022-09-21T09:55:40.595Z,15.21
2022-09-21T09:59:53.366Z,14.98
2022-09-21T10:04:08.754Z,15.70
2022-09-21T10:08:44.421Z,16.19
2022-09-21T10:12:47.521Z,16.46
2022-09-21T10:16:51.975Z,16.28
2022-09-21T10:21:00.114Z,16.38
2022-09-21T10:25:06.005Z,17.45
2022-09-21T10:29:18.707Z,16.16
2022-09-21T10:33:22.212Z,17.07
2022-09-21T10:37:29.403Z,17.97
2022-09-21T10:41:30.957Z,17.04
2022-09-21T10:45:37.082Z,16.81
2022-09-21T10:49:48.209Z,16.92
2022-09-21T10:53:53.770Z,16.17
2022-09-21T10:57:57.041Z,16.26
2022-09-21T11:02:00.691Z,16.25
2022-09-21T11:06:16.745Z,17.29
2022-09-21T11:10:34.644Z,17.62
2022-09-21T11:14:51.415Z,17.19
2022-09-21T11:18:58.766Z,15.34
2022-09-21T11:23:10.919Z,15.08
2022-09-21T11:27:22.655Z,14.27
2022-09-21T11:31:37.207Z,14.62
2022-09-21T11:35:53.253Z,15.82
2022-09-21T11:40:12.895Z,16.26
2022-09-21T11:44:32.224Z,18.28
2022-09-21T11:48:40.160Z,18.04
2022-09-21T11:52:53.323Z,17.62
2022-09-21T11:57:22.862Z,17.31
2022-09-21T12:01:36.694Z,17.28
2022-09-21T12:06:11.927Z,16.64
2022-09-21T12:10:39.945Z,17.05
2022-09-21T12:14:59.814Z,18.28
2022-09-21T12:19:33.716Z,19.69
2022-09-21T12:23:45.140Z,18.51
2022-09-21T12:27:51.969Z,16.60
2022-09-21T12:32:01.639Z,16.39
2022-09-21T12:36:25.668Z,16.73
2022-09-21T12:40:48.065Z,16.64
2022-09-21T12:44:58.486Z,17.64
2022-09-21T12:49:05.654Z,17.05
2022-09-21T12:53:14.442Z,16.43
2022-09-21T12:57:45.463Z,17.26
2022-09-21T13:01:57.178Z,18.39
2022-09-21T13:06:37.511Z,18.74
2022-09-21T13:10:54.703Z,17.17
2022-09-21T13:15:04.890Z,17.59
2022-09-21T13:19:24.534Z,17.54
2022-09-21T13:23:29.236Z,17.67
2022-09-21T13:28:09.335Z,18.23
2022-09-21T13:32:14.020Z,18.70
2022-09-21T13:36:36.220Z,17.35
2022-09-21T13:40:37.857Z,17.05
2022-09-21T13:44:42.277Z,16.68
2022-09-21T13:48:43.774Z,16.32
2022-09-21T13:52:51.944Z,17.84
2022-09-21T13:57:00.465Z,18.66
2022-09-21T14:01:29.501Z,19.38
2022-09-21T14:05:44.203Z,17.33
2022-09-21T14:10:01.436Z,16.72
2022-09-21T14:14:05.687Z,16.19
2022-09-21T14:18:35.734Z,15.79
2022-09-21T14:22:38.414Z,15.74
2022-09-21T14:26:39.788Z,15.21
2022-09-21T14:30:50.288Z,15.55
2022-09-21T14:34:57.114Z,15.95
2022-09-21T14:39:03.260Z,16.59
2022-09-21T14:43:20.877Z,16.64
2022-09-21T14:47:51.979Z,16.89
2022-09-21T14:52:32.574Z,17.45
2022-09-21T14:56:39.079Z,16.69
2022-09-21T15:00:43.494Z,17.44
2022-09-21T15:05:06.610Z,17.63
2022-09-21T15:09:46.098Z,17.24
2022-09-21T15:14:12.157Z,16.40
2022-09-21T15:18:20.124Z,16.48
2022-09-21T15:22:22.527Z,16.57
2022-09-21T15:26:26.799Z,15.98
2022-09-21T15:30:33.087Z,15.85
2022-09-21T15:34:34.553Z,15.86
2022-09-21T15:38:38.550Z,15.84
2022-09-21T15:43:04.624Z,15.52
2022-09-21T15:47:13.049Z,15.24
2022-09-21T15:51:33.690Z,15.24
2022-09-21T15:55:35.335Z,15.37
2022-09-21T15:59:37.012Z,15.52
2022-09-21T16:03:39.853Z,15.05
2022-09-21T16:07:41.646Z,15.32
2022-09-21T16:11:43.087Z,15.27
2022-09-21T16:16:00.559Z,15.16
2022-09-21T16:20:15.599Z,15.53
2022-09-21T16:24:19.472Z,15.44
2022-09-21T16:28:21.426Z,15.14
2022-09-21T16:32:32.834Z,15.21
2022-09-21T16:36:37.936Z,15.18
2022-09-21T16:40:39.643Z,15.04
2022-09-21T16:44:47.005Z,14.70
2022-09-21T16:48:48.905Z,14.54
2022-09-21T16:52:52.336Z,14.55
2022-09-21T16:57:06.316Z,14.27
2022-09-21T17:01:11.448Z,14.40
2022-09-21T17:05:21.532Z,14.16
2022-09-21T17:09:37.715Z,13.88
2022-09-21T17:13:54.214Z,13.54
2022-09-21T17:17:58.070Z,13.25
2022-09-21T17:21:59.721Z,13.22
2022-09-21T17:26:22.053Z,13.33
2022-09-21T17:30:25.104Z,12.94
2022-09-21T17:34:28.746Z,12.86
2022-09-21T17:38:30.142Z,12.67
2022-09-21T17:42:38.087Z,12.89
2022-09-21T17:46:51.363Z,12.52
2022-09-21T17:50:53.034Z,12.63
2022-09-21T17:54:54.763Z,12.35
2022-09-21T17:59:02.671Z,12.30
2022-09-21T18:03:04.675Z,12.19
2022-09-21T18:07:06.585Z,12.23
2022-09-21T18:11:36.245Z,12.26
2022-09-21T18:15:49.442Z,11.96
2022-09-21T18:20:29.389Z,11.80
2022-09-21T18:24:46.859Z,11.88
2022-09-21T18:28:56.197Z,12.09
2022-09-21T18:33:13.033Z,11.65
2022-09-21T18:37:38.094Z,11.60
2022-09-21T18:42:10.033Z,11.78
2022-09-21T18:46:16.920Z,11.69
2022-09-21T18:50:31.751Z,11.58
2022-09-21T18:54:33.532Z,11.42
2022-09-21T18:58:42.770Z,11.31
2022-09-21T19:03:12.337Z,11.33
2022-09-21T19:07:31.480Z,10.98
2022-09-21T19:12:14.135Z,11.17
2022-09-21T19:16:34.916Z,10.86
2022-09-21T19:21:16.278Z,10.76
2022-09-21T19:25:35.763Z,10.45
2022-09-21T19:30:12.532Z,10.37
2022-09-21T19:34:26.842Z,10.07
2022-09-21T19:38:31.628Z,9.64
2022-09-21T19:42:52.342Z,9.60
2022-09-21T19:47:05.860Z,9.59
2022-09-21T19:51:16.313Z,9.73
2022-09-21T19:55:43.401Z,9.73
2022-09-21T19:59:45.452Z,9.45
2022-09-21T20:03:48.651Z,9.59
2022-09-21T20:07:58.050Z,9.62
2022-09-21T20:12:27.096Z,9.79
2022-09-21T20:16:46.593Z,9.64
2022-09-21T20:20:48.372Z,9.89
2022-09-21T20:24:56.709Z,9.61
2022-09-21T20:28:58.607Z,9.88
2022-09-21T20:33:13.726Z,9.54
2022-09-21T20:37:15.318Z,9.70
2022-09-21T20:41:18.954Z,9.60
2022-09-21T20:45:21.077Z,9.38
2022-09-21T20:49:22.477Z,9.60
2022-09-21T20:53:24.656Z,9.68
2022-09-21T20:57:26.048Z,9.64
2022-09-21T21:01:27.607Z,9.72
2022-09-21T21:05:29.158Z,9.59
2022-09-21T21:09:30.939Z,9.71
2022-09-21T21:13:33.219Z,9.75
2022-09-21T21:17:36.476Z,9.77
2022-09-21T21:21:38.666Z,9.71
2022-09-21T21:25:40.087Z,9.63
2022-09-21T21:29:42.303Z,9.53
2022-09-21T21:33:43.824Z,9.62
2022-09-21T21:37:45.351Z,9.43
2022-09-21T21:41:47.328Z,9.43
2022-09-21T21:45:57.680Z,9.61
2022-09-21T21:50:03.741Z,9.63
2022-09-21T21:54:05.410Z,9.93
2022-09-21T21:58:06.942Z,9.94
2022-09-21T22:02:08.356Z,9.99
2022-09-21T22:06:10.919Z,9.96
2022-09-21T22:10:12.906Z,9.94
2022-09-21T22:14:14.352Z,9.94
2022-09-21T22:18:19.465Z,9.81
2022-09-21T22:22:21.081Z,9.66
2022-09-21T22:26:23.315Z,9.74
2022-09-21T22:30:24.737Z,9.64
2022-09-21T22:34:26.210Z,9.63
2022-09-21T22:38:29.941Z,9.62
2022-09-21T22:42:31.774Z,9.39
2022-09-21T22:46:34.130Z,9.50
2022-09-21T22:50:35.552Z,9.52
2022-09-21T22:54:36.921Z,9.35
2022-09-21T22:58:40.778Z,9.24
2022-09-21T23:02:43.526Z,9.27
2022-09-21T23:06:45.252Z,9.18
2022-09-21T23:10:46.658Z,9.40
2022-09-21T23:14:48.047Z,9.20
2022-09-21T23:18:50.522Z,9.25
2022-09-21T23:22:52.049Z,9.12
2022-09-21T23:26:53.573Z,9.37
2022-09-21T23:31:00.333Z,9.52
2022-09-21T23:35:01.887Z,9.63
2022-09-21T23:39:05.435Z,9.80
2022-09-21T23:43:06.878Z,9.88
2022-09-21T23:47:08.392Z,10.00
2022-09-21T23:51:10.598Z,10.15
2022-09-21T23:55:11.982Z,10.14
2022-09-21T23:59:13.393Z,10.09
